Nearby METAR Reports

 

KTEB - Teterboro, New Jersey, USA
Distance from station: ENE 2mi, 4km
Updated: 07/19/2019 6:51am
Mist, Overcast
Mist, Overcast
 Wind from S
Wind: S 5 mph , 7 km/h
Temperature: 73°F , 23°C
Dew Point: 70°F , 21°C
Humidity: 89%
Barometer: 29.90 inHg , 1012.5 hPa
Summary: Mist
Clouds: Overcast
Visibility: 6 miles , 10 km
Cloud details: Overcast 700 ft
2019/07/19 10:51 KTEB 191051Z 17004KT 6SM BR OVC007 23/21 A2990 RMK AO2 SLP124 T02280206
KNYC - Nyc/Central Park, New York, USA
Distance from station: SE 8mi, 13km
Updated: 07/19/2019 6:51am
Overcast
Overcast
 Wind from calm
Wind: Calm
Temperature: 73°F , 23°C
Dew Point: 70°F , 21°C
Humidity: 89%
Barometer: 29.94 inHg , 1013.9 hPa
Clouds: Overcast
Visibility: 9 miles , 14 km
Cloud details: Overcast 1300 ft
2019/07/19 10:51 KNYC 191051Z AUTO 00000KT 9SM OVC013 23/21 A2994 RMK AO2 SLP129 T02280206 $
 
KCDW - Caldwell, New Jersey, USA
Distance from station: WNW 10mi, 17km
Updated: 07/19/2019 7:10am
Overcast
Overcast
 Wind from calm
Wind: Calm
Temperature: 73°F , 23°C
Dew Point: 72°F , 22°C
Humidity: 94%
Barometer: 29.92 inHg , 1013.2 hPa
Clouds: Overcast
Visibility: 7 miles , 11 km
Cloud details: Mostly cloudy 600 ft
Overcast 900 ft
2019/07/19 11:10 KCDW 191110Z 00000KT 7SM BKN006 OVC009 23/22 A2992 RMK AO2 CIG 003V007 T02330222
KLGA - Nyc/La Guardia, New York, USA
Distance from station: ESE 12mi, 19km
Updated: 07/19/2019 6:51am
Mist, Overcast
Mist, Overcast
 Wind from E
Wind: E 5 mph , 7 km/h
Temperature: 72°F , 22°C
Dew Point: 68°F , 20°C
Humidity: 88%
Barometer: 29.91 inHg , 1012.9 hPa
Summary: Mist
Clouds: Overcast
Visibility: 5 miles , 8 km
Cloud details: Partly cloudy 800 ft
Overcast 1300 ft
2019/07/19 10:51 KLGA 191051Z 09004KT 5SM BR SCT008 OVC013 22/20 A2991 RMK AO2 SLP127 T02220200
 
KEWR - Newark, New Jersey, USA
Distance from station: SSW 12mi, 20km
Updated: 07/19/2019 6:51am
Overcast
Overcast
 Wind from calm
Wind: Calm
Temperature: 73°F , 23°C
Dew Point: 70°F , 21°C
Humidity: 89%
Barometer: 29.91 inHg , 1012.9 hPa
Clouds: Overcast
Visibility: 10 miles , 16 km
Cloud details: Mostly cloudy 900 ft
Overcast 1200 ft
2019/07/19 10:51 KEWR 191051Z 00000KT 10SM BKN009 OVC012 23/21 A2991 RMK AO2 SLP128 T02330211
KMMU - Morristown Muni, New Jersey, USA
Distance from station: WSW 18mi, 29km
Updated: 07/19/2019 6:45am
Mist, Overcast
Mist, Overcast
 Wind from SSW
Wind: SSW 5 mph , 7 km/h
Temperature: 72°F , 22°C
Dew Point: 72°F , 22°C
Humidity: 100%
Barometer: 29.92 inHg , 1013.2 hPa
Summary: Mist
Clouds: Overcast
Visibility: 2 miles , 3 km
Cloud details: Mostly cloudy 900 ft
Overcast 1200 ft
2019/07/19 10:45 KMMU 191045Z 20004KT 2SM BR BKN009 OVC012 22/22 A2992
 
KJFK - Nyc/Jfk Arpt, New York, USA
Distance from station: SE 23mi, 36km
Updated: 07/19/2019 6:51am
Mostly cloudy
Mostly cloudy
 Wind from calm
Wind: Calm
Temperature: 72°F , 22°C
Dew Point: 72°F , 22°C
Humidity: 100%
Barometer: 29.92 inHg , 1013.2 hPa
Clouds: Mostly cloudy
Visibility: 9 miles , 14 km
Cloud details: Few Clouds 700 ft
Mostly cloudy 1300 ft
2019/07/19 10:51 KJFK 191051Z 00000KT 9SM FEW007 BKN013 22/22 A2992 RMK AO2 SLP133 T02220217
KHPN - White Plains, New York, USA
Distance from station: NE 25mi, 40km
Updated: 07/19/2019 6:56am
Mist, Overcast
Mist, Overcast
 Wind from W
Wind: W 5 mph , 7 km/h
Temperature: 70°F , 21°C
Dew Point: 70°F , 21°C
Humidity: 100%
Barometer: 29.91 inHg , 1012.9 hPa
Summary: Mist
Clouds: Overcast
Visibility: 2 miles , 3 km
Cloud details: Mostly cloudy 600 ft
Overcast 1000 ft
2019/07/19 10:56 KHPN 191056Z 26004KT 2SM BR BKN006 OVC010 21/21 A2991 RMK AO2 SLP125 T02110206
 
KSMQ - Somerville, New Jersey, USA
Distance from station: WSW 34mi, 55km
Updated: 07/19/2019 7:04am
Mist, Overcast
Mist, Overcast
 Wind from S
Wind: S 3 mph , 6 km/h
Temperature: 72°F , 22°C
Dew Point: 72°F , 22°C
Humidity: 100%
Barometer: 29.90 inHg , 1012.5 hPa
Summary: Mist
Clouds: Overcast
Visibility: 1 1/4 miles , 2 km
Cloud details: Overcast 400 ft
2019/07/19 11:04 KSMQ 191104Z AUTO 19003KT 1 1/4SM BR OVC004 22/22 A2990 RMK AO2 T02220217
K12N - Andover, New Jersey, USA
Distance from station: WNW 36mi, 57km
Updated: 07/19/2019 6:54am

 Wind from calm
Wind: Calm
Temperature: 72°F , 22°C
Dew Point: 72°F , 22°C
Humidity: 100%
Barometer: 29.93 inHg , 1013.5 hPa
2019/07/19 10:54 K12N 191054Z AUTO 00000KT 22/22 A2993 RMK AO1 SLP125 T02220222
 
KFRG - Farmingdale, New York, USA
Distance from station: ESE 36mi, 58km
Updated: 07/19/2019 6:53am
Overcast
Overcast
 Wind from N
Wind: N 5 mph , 7 km/h
Temperature: 70°F , 21°C
Dew Point: 66°F , 19°C
Humidity: 88%
Barometer: 29.92 inHg , 1013.2 hPa
Clouds: Overcast
Visibility: 10 miles , 16 km
Cloud details: Overcast 600 ft
2019/07/19 10:53 KFRG 191053Z 35004KT 10SM OVC006 21/19 A2992 RMK AO2 CIG 005V010 SLP131 T02110194
KFWN - Sussex, New Jersey, USA
Distance from station: NW 37mi, 60km
Updated: 07/19/2019 6:53am
Mist, Overcast
Mist, Overcast
 Wind from calm
Wind: Calm
Temperature: 73°F , 23°C
Dew Point: 70°F , 21°C
Humidity: 89%
Barometer: 29.92 inHg , 1013.2 hPa
Summary: Mist
Clouds: Overcast
Visibility: 5 miles , 8 km
Cloud details: Overcast 400 ft
2019/07/19 10:53 KFWN 191053Z AUTO 00000KT 5SM BR OVC004 23/21 A2992 RMK AO2 SLP128 T02280211
 
KSWF - Newburgh/Stewart, New York, USA
Distance from station: 0 45mi, 72km
Updated: 07/19/2019 6:45am
Mist, Overcast
Mist, Overcast
 Wind from W
Wind: W 6 mph , 9 km/h
Temperature: 70°F , 21°C
Dew Point: 70°F , 21°C
Humidity: 100%
Barometer: 29.92 inHg , 1013.2 hPa
Summary: Mist
Clouds: Overcast
Visibility: 2 miles , 3 km
Cloud details: Overcast 300 ft
2019/07/19 10:45 KSWF 191045Z 27005KT 2SM BR OVC003 21/21 A2992
KMGJ - Montgomery, New York, USA
Distance from station: NNW 47mi, 75km
Updated: 07/19/2019 6:54am
Overcast
Overcast
 Wind from calm
Wind: Calm
Temperature: 72°F , 22°C
Dew Point: 70°F , 21°C
Humidity: 94%
Barometer: 29.91 inHg , 1012.9 hPa
Clouds: Overcast
Visibility: 10 miles , 16 km
Cloud details: Overcast 500 ft
2019/07/19 10:54 KMGJ 191054Z AUTO 00000KT 10SM OVC005 22/21 A2991 RMK AO2 SLP125 T02170211
 
KBLM - Belmar/Farmdale, New Jersey, USA
Distance from station: S 47mi, 76km
Updated: 07/19/2019 6:53am
Mist, Overcast
Mist, Overcast
 Wind from calm
Wind: Calm
Temperature: 72°F , 22°C
Dew Point: 72°F , 22°C
Humidity: 100%
Barometer: 29.93 inHg , 1013.5 hPa
Summary: Mist
Clouds: Overcast
Visibility: 1 1/4 miles , 2 km
Cloud details: Overcast 200 ft
2019/07/19 10:53 KBLM 191053Z AUTO 00000KT 1 1/4SM BR OVC002 22/22 A2993 RMK AO2 SLP135 T02220217
KDXR - Danbury, Connecticut, USA
Distance from station: NE 47mi, 76km
Updated: 07/19/2019 6:53am
Overcast
Overcast
 Wind from calm
Wind: Calm
Temperature: 70°F , 21°C
Dew Point: 66°F , 19°C
Humidity: 88%
Barometer: 29.93 inHg , 1013.5 hPa
Clouds: Overcast
Visibility: 10 miles , 16 km
Cloud details: Overcast 900 ft
2019/07/19 10:53 KDXR 191053Z 00000KT 10SM OVC009 21/19 A2993 RMK AO2 SLP132 T02060189
 
KISP - Islip, New York, USA
Distance from station: E 52mi, 83km
Updated: 07/19/2019 6:56am
Mostly cloudy
Mostly cloudy
 Wind from N
Wind: N 6 mph , 9 km/h
Temperature: 72°F , 22°C
Dew Point: 70°F , 21°C
Humidity: 94%
Barometer: 29.91 inHg , 1012.9 hPa
Clouds: Mostly cloudy
Visibility: 8 miles , 13 km
Cloud details: Mostly cloudy 700 ft
2019/07/19 10:56 KISP 191056Z 36005KT 8SM BKN007 22/21 A2991 RMK AO2 SLP128 T02170206
KBDR - Bridgeport, Connecticut, USA
Distance from station: ENE 54mi, 87km
Updated: 07/19/2019 6:52am
Overcast
Overcast
 Wind from calm
Wind: Calm
Temperature: 70°F , 21°C
Dew Point: 66°F , 19°C
Humidity: 88%
Barometer: 29.91 inHg , 1012.9 hPa
Clouds: Overcast
Visibility: 8 miles , 13 km
Cloud details: Overcast 1000 ft
2019/07/19 10:52 KBDR 191052Z 00000KT 8SM OVC010 21/19 A2991 RMK AO2 CIG 006V012 SLP128 T02110194 $
 
KTTN - Trenton, New Jersey, USA
Distance from station: SW 55mi, 88km
Updated: 07/19/2019 7:09am
Mist, Overcast
Mist, Overcast
 Wind from calm
Wind: Calm
Temperature: 72°F , 22°C
Dew Point: 72°F , 22°C
Humidity: 100%
Barometer: 29.93 inHg , 1013.5 hPa
Summary: Mist
Clouds: Overcast
Visibility: 4 miles , 6 km
Cloud details: Overcast 200 ft
2019/07/19 11:09 KTTN 191109Z 00000KT 4SM BR OVC002 22/22 A2993 RMK AO2 T02220222
KPOU - Poughkeepsie, New York, USA
Distance from station: N 55mi, 89km
Updated: 07/19/2019 6:53am
Overcast
Overcast
 Wind from calm
Wind: Calm
Temperature: 72°F , 22°C
Dew Point: 68°F , 20°C
Humidity: 88%
Barometer: 29.89 inHg , 1012.2 hPa
Clouds: Overcast
Visibility: 10 miles , 16 km
Cloud details: Overcast 700 ft
2019/07/19 10:53 KPOU 191053Z 00000KT 10SM OVC007 22/20 A2989 RMK AO2 SLP118 T02170200
 
KNEL - Lakehurst Nas, New Jersey, USA
Distance from station: SSW 59mi, 95km
Updated: 07/19/2019 7:00am
Overcast
Overcast
 Wind from calm
Wind: Calm
Temperature: 73°F , 23°C
Dew Point: 73°F , 23°C
Humidity: 100%
Barometer: 29.92 inHg , 1013.2 hPa
Clouds: Overcast
Cloud details: Overcast 300 ft
2019/07/19 11:00 KNEL 191100Z AUTO 00000KT OVC003 23/23 A2992 RMK AO2 CIG 002V005 SLP128 T02280228 $
KWRI - Wrightst/Mcguire, New Jersey, USA
Distance from station: SSW 63mi, 102km
Updated: 07/19/2019 7:07am
Light rain, Mist, Overcast
Light rain, Mist, Overcast
 Wind from calm
Wind: Calm
Temperature: 73°F , 23°C
Dew Point: 73°F , 23°C
Humidity: 100%
Barometer: 29.92 inHg , 1013.2 hPa
Summary: Light rain, Mist
Clouds: Overcast
Visibility: 1 1/4 miles , 2 km
Cloud details: Overcast 200 ft
2019/07/19 11:07 KWRI 191107Z AUTO 00000KT 1 1/4SM -RA BR OVC002 23/23 A2992 RMK AO2 VIS 3/4V1 1/4 VIS 3/4 RWY18 RAB07 CIG 001 RWY18 SLP131 $
 
KHWV - Shirley, New York, USA
Distance from station: E 64mi, 103km
Updated: 07/19/2019 6:56am
Mist, Overcast
Mist, Overcast
 Wind from NNW
Wind: NNW 6 mph , 9 km/h
Temperature: 70°F , 21°C
Dew Point: 66°F , 19°C
Humidity: 88%
Barometer: 29.92 inHg , 1013.2 hPa
Summary: Mist
Clouds: Overcast
Visibility: 3 miles , 5 km
Cloud details: Overcast 300 ft
2019/07/19 10:56 KHWV 191056Z AUTO 34005KT 3SM BR OVC003 21/19 A2992 RMK AO2 SLP130 T02060194
KMJX - Toms River, New Jersey, USA
Distance from station: S 64mi, 104km
Updated: 07/19/2019 7:09am
Mist, Overcast
Mist, Overcast
 Wind from calm
Wind: Calm
Barometer: 29.93 inHg , 1013.5 hPa
Summary: Mist
Clouds: Overcast
Visibility: 2 miles , 3 km
Cloud details: Overcast 200 ft
2019/07/19 11:09 KMJX 191109Z AUTO 00000KT 2SM BR OVC002 A2993 RMK AO2 VIS 1 1/4V3 FZRANO $
 
KDYL - Doylestown, Pennsylvania, USA
Distance from station: SW 65mi, 104km
Updated: 07/19/2019 7:06am
Mist, Overcast
Mist, Overcast
 Wind from calm
Wind: Calm
Temperature: 73°F , 23°C
Dew Point: 72°F , 22°C
Humidity: 94%
Barometer: 29.93 inHg , 1013.5 hPa
Summary: Mist
Clouds: Overcast
Visibility: 3 miles , 5 km
Cloud details: Overcast 200 ft
2019/07/19 11:06 KDYL 191106Z AUTO 00000KT 3SM BR OVC002 23/22 A2993 RMK AO2 T02280222
KOXC - Oxford/Waterbury, Connecticut, USA
Distance from station: NE 65mi, 105km
Updated: 07/19/2019 7:10am
Fog, Overcast
Fog, Overcast
 Wind from calm
Wind: Calm
Temperature: 66°F , 19°C
Dew Point: 66°F , 19°C
Humidity: 100%
Barometer: 29.94 inHg , 1013.9 hPa
Summary: Fog
Clouds: Overcast
Visibility: 1/2 mile , 0.8 km
Cloud details: Overcast 200 ft
2019/07/19 11:10 KOXC 191110Z 00000KT 1/2SM FG VV002 19/19 A2994 RMK AO2
 
KMSV - Monticello, New York, USA
Distance from station: NNW 69mi, 111km
Updated: 07/19/2019 7:15am
Mist, Overcast
Mist, Overcast
 Wind from calm
Wind: Calm
Temperature: 70°F , 21°C
Dew Point: 70°F , 21°C
Humidity: 100%
Barometer: 29.96 inHg , 1014.6 hPa
Summary: Mist
Clouds: Overcast
Visibility: 3/4 mile , 1.2 km
Cloud details: Overcast 300 ft
2019/07/19 11:15 KMSV 191115Z AUTO 00000KT 3/4SM BR OVC003 21/21 A2996 RMK AO2 RVRNO
KHVN - New Haven/Tweed, Connecticut, USA
Distance from station: ENE 70mi, 112km
Updated: 07/19/2019 6:53am
Overcast
Overcast
 Wind from calm
Wind: Calm
Temperature: 72°F , 22°C
Dew Point: 66°F , 19°C
Humidity: 83%
Barometer: 29.91 inHg , 1012.9 hPa
Clouds: Overcast
Visibility: 10 miles , 16 km
Cloud details: Overcast 1100 ft
2019/07/19 10:53 KHVN 191053Z 00000KT 10SM OVC011 22/19 A2991 RMK AO2 SLP128 T02220194
 
KMPO - Mt. Pocono, Pennsylvania, USA
Distance from station: WNW 70mi, 113km
Updated: 07/19/2019 6:53am
Overcast
Overcast
 Wind from W
Wind: W 12 mph , 19 km/h
Temperature: 70°F , 21°C
Dew Point: 70°F , 21°C
Humidity: 100%
Barometer: 29.98 inHg , 1015.2 hPa
Clouds: Overcast
Visibility: 10 miles , 16 km
Cloud details: Overcast 300 ft
2019/07/19 10:53 KMPO 191053Z AUTO 28010KT 10SM OVC003 21/21 A2998 RMK AO2 SLP139 T02110211 $
KPNE - Philadelphia/Ne, Pennsylvania, USA
Distance from station: SW 72mi, 116km
Updated: 07/19/2019 7:03am
Haze, Overcast
Haze, Overcast
 Wind from calm
Wind: Calm
Temperature: 77°F , 25°C
Dew Point: 72°F , 22°C
Humidity: 83%
Barometer: 29.94 inHg , 1013.9 hPa
Summary: Haze
Clouds: Overcast
Visibility: 3 miles , 5 km
Cloud details: Partly cloudy 800 ft
Mostly cloudy 1200 ft
Overcast 2100 ft
2019/07/19 11:03 KPNE 191103Z 00000KT 3SM HZ SCT008 BKN012 OVC021 25/22 A2994 RMK AO2 T02500222
 
KABE - Allentown, Pennsylvania, USA
Distance from station: W 73mi, 117km
Updated: 07/19/2019 6:51am
Overcast
Overcast
 Wind from S
Wind: S 5 mph , 7 km/h
Temperature: 77°F , 25°C
Dew Point: 73°F , 23°C
Humidity: 89%
Barometer: 29.93 inHg , 1013.5 hPa
Clouds: Overcast
Visibility: 7 miles , 11 km
Cloud details: Mostly cloudy 700 ft
Overcast 1000 ft
2019/07/19 10:51 KABE 191051Z 18004KT 7SM BKN007 OVC010 25/23 A2993 RMK AO2 SLP130 T02500228
KUKT - Quakertown Arp, Pennsylvania, USA
Distance from station: WSW 74mi, 119km
Updated: 07/19/2019 7:15am
Fog, Overcast
Fog, Overcast
 Wind from calm
Wind: Calm
Temperature: 73°F , 23°C
Dew Point: 73°F , 23°C
Humidity: 100%
Barometer: 29.95 inHg , 1014.2 hPa
Summary: Fog
Clouds: Overcast
Visibility: 1/2 mile , 0.8 km
Cloud details: Overcast 200 ft
2019/07/19 11:15 KUKT 191115Z AUTO 00000KT 1/2SM FG OVC002 23/23 A2995 RMK A01
 
KVAY - Mount Holly, New Jersey, USA
Distance from station: SSW 75mi, 120km
Updated: 07/19/2019 7:13am
Mist, Overcast
Mist, Overcast
 Wind from calm
Wind: Calm
Temperature: 75°F , 24°C
Dew Point: 73°F , 23°C
Humidity: 94%
Barometer: 29.93 inHg , 1013.5 hPa
Summary: Mist
Clouds: Overcast
Visibility: 3 miles , 5 km
Cloud details: Overcast 300 ft
2019/07/19 11:13 KVAY 191113Z AUTO 00000KT 3SM BR OVC003 24/23 A2993 RMK AO2 T02390233 $
KXLL - Allentown Queen, Pennsylvania, USA
Distance from station: WSW 76mi, 122km
Updated: 07/19/2019 6:55am
Overcast
Overcast
 Wind from calm
Wind: Calm
Temperature: 77°F , 25°C
Dew Point: 77°F , 25°C
Humidity: 100%
Barometer: 29.94 inHg , 1013.9 hPa
Clouds: Overcast
Visibility: 7 miles , 11 km
Cloud details: Overcast 1000 ft
2019/07/19 10:55 KXLL 191055Z AUTO 00000KT 7SM OVC010 25/25 A2994 RMK AO2
 
KFOK - Westhampton Beac, New York, USA
Distance from station: E 77mi, 124km
Updated: 07/19/2019 6:53am
Overcast
Overcast
 Wind from NNW
Wind: NNW 5 mph , 7 km/h
Temperature: 68°F , 20°C
Dew Point: 66°F , 19°C
Humidity: 94%
Barometer: 29.93 inHg , 1013.5 hPa
Clouds: Overcast
Visibility: 7 miles , 11 km
Cloud details: Overcast 300 ft
2019/07/19 10:53 KFOK 191053Z AUTO 34004KT 7SM OVC003 20/19 A2993 RMK AO2 SLP134 T02000194
KLOM - Philly Wings F, Pennsylvania, USA
Distance from station: SW 79mi, 128km
Updated: 07/19/2019 6:55am
Mist, Overcast
Mist, Overcast
 Wind from calm
Wind: Calm
Temperature: 75°F , 24°C
Dew Point: 75°F , 24°C
Humidity: 100%
Barometer: 29.94 inHg , 1013.9 hPa
Summary: Mist
Clouds: Overcast
Visibility: 2 1/2 miles , 4 km
Cloud details: Mostly cloudy 600 ft
Overcast 2400 ft
2019/07/19 10:55 KLOM 191055Z AUTO 00000KT 2 1/2SM BR BKN006 OVC024 24/24 A2994 RMK AO2 T02380235
 
KMMK - Meriden, Connecticut, USA
Distance from station: NE 80mi, 128km
Updated: 07/19/2019 6:53am
Overcast
Overcast
 Wind from calm
Wind: Calm
Temperature: 70°F , 21°C
Dew Point: 64°F , 18°C
Humidity: 83%
Barometer: 29.91 inHg , 1012.9 hPa
Clouds: Overcast
Visibility: 10 miles , 16 km
Cloud details: Overcast 1300 ft
2019/07/19 10:53 KMMK 191053Z AUTO 00000KT 10SM OVC013 21/18 A2991 RMK AO2 SLP128 T02060183
KPTW - Pottstown, Pennsylvania, USA
Distance from station: WSW 88mi, 141km
Updated: 07/19/2019 6:54am
Mist, Overcast
Mist, Overcast
 Wind from calm
Wind: Calm
Temperature: 75°F , 24°C
Dew Point: 75°F , 24°C
Humidity: 100%
Barometer: 29.95 inHg , 1014.2 hPa
Summary: Mist
Clouds: Overcast
Visibility: 3 miles , 5 km
Cloud details: Overcast 300 ft
2019/07/19 10:54 KPTW 191054Z AUTO 00000KT 3SM BR OVC003 24/24 A2995 RMK AO2 SLP136 T02390239 $
 
KSNC - Chester, Connecticut, USA
Distance from station: ENE 90mi, 146km
Updated: 07/19/2019 7:15am

 Wind from calm
Wind: Calm
Temperature: 68°F , 20°C
Dew Point: 64°F , 18°C
Humidity: 88%
Barometer: 29.92 inHg , 1013.2 hPa
Visibility: 10 miles , 16 km
2019/07/19 11:15 KSNC 191115Z AUTO 00000KT 10SM 20/18 A2992 RMK AO2
KPHL - Philadelphia, Pennsylvania, USA
Distance from station: SW 91mi, 146km
Updated: 07/19/2019 7:13am
Mist, Overcast
Mist, Overcast
 Wind from S
Wind: S 5 mph , 7 km/h
Temperature: 77°F , 25°C
Dew Point: 73°F , 23°C
Humidity: 89%
Barometer: 29.93 inHg , 1013.5 hPa
Summary: Mist
Clouds: Overcast
Visibility: 6 miles , 10 km
Cloud details: Few Clouds 400 ft
Partly cloudy 800 ft
Overcast 2000 ft
2019/07/19 11:13 KPHL 191113Z 17004KT 6SM BR FEW004 SCT008 OVC020 25/23 A2993 RMK AO2 T02500233 $
 
KAVP - Avoca/Wilkes B., Pennsylvania, USA
Distance from station: WNW 91mi, 147km
Updated: 07/19/2019 7:10am
Partly cloudy
Partly cloudy
 Wind from calm
Wind: Calm
Temperature: 73°F , 23°C
Dew Point: 72°F , 22°C
Humidity: 94%
Barometer: 29.93 inHg , 1013.5 hPa
Clouds: Partly cloudy
Visibility: 7 miles , 11 km
Cloud details: Partly cloudy 1100 ft
2019/07/19 11:10 KAVP 191110Z 00000KT 7SM SCT011 23/22 A2993 RMK AO2 T02330222
KHFD - Hartford/Brainar, Connecticut, USA
Distance from station: NE 96mi, 155km
Updated: 07/19/2019 6:53am
Overcast
Overcast
 Wind from calm
Wind: Calm
Temperature: 72°F , 22°C
Dew Point: 63°F , 17°C
Humidity: 73%
Barometer: 29.90 inHg , 1012.5 hPa
Clouds: Overcast
Visibility: 10 miles , 16 km
Cloud details: Overcast 1600 ft
2019/07/19 10:53 KHFD 191053Z 00000KT 10SM OVC016 22/17 A2990 RMK AO2 SLP126 T02170167
 
KHTO - East Hampton, New York, USA
Distance from station: E 96mi, 155km
Updated: 07/19/2019 6:55am
Overcast
Overcast
 Wind from N
Wind: N 5 mph , 7 km/h
Temperature: 66°F , 19°C
Dew Point: 66°F , 19°C
Humidity: 100%
Barometer: 29.90 inHg , 1012.5 hPa
Clouds: Overcast
Visibility: 7 miles , 11 km
Cloud details: Overcast 400 ft
2019/07/19 10:55 KHTO 191055Z AUTO 35004KT 7SM OVC004 19/19 A2990 RMK AO2 LTG DSNT E T01900185
KACY - Atlantic City, New Jersey, USA
Distance from station: SSW 99mi, 160km
Updated: 07/19/2019 7:15am
Mist, Overcast
Mist, Overcast
 Wind from calm
Wind: Calm
Temperature: 75°F , 24°C
Dew Point: 73°F , 23°C
Humidity: 94%
Barometer: 29.92 inHg , 1013.2 hPa
Summary: Mist
Clouds: Overcast
Visibility: 1 1/2 miles , 2.4 km
Cloud details: Overcast 200 ft
2019/07/19 11:15 KACY 191115Z 00000KT 1 1/2SM BR OVC002 24/23 A2992 RMK AO2 T02390233